To NAV CANADA Home Page Login to a new session Search on AWWS site Feedback and Comments Disclaimer Vers la page française équivalente Tips FAQ What's new on the site To the Forecasts and Observations / NOTAM section To "File a Flight Plan" website Publications and other links Update of the User's profile FIC Telephone Numbers My Weather Data Folder Route Weather Data Regional Weather Data Local Weather Data To the Forecasts and Observations / NOTAM section
Request Generated 01/21/2017 at 02:05:37 UTC . Weather information available at that time is displayed.

METAR/TAF

HAVRE ST-PIERRE/QC    (show WxCam)

METAR CYGV 210200Z AUTO 00000KT 9SM OVC016 M05/M06 A2989 RMK SLP126=
METAR CYGV 210100Z AUTO 00000KT 9SM OVC016 M05/M05 A2990 RMK SLP130=
METAR CYGV 210000Z AUTO VRB02KT 9SM OVC016 M04/M05 A2992 RMK SLP135=

TAF CYGV 210138Z 2102/2114 VRB03KT P6SM OVC015 TEMPO 2102/2108 SCT015
OVC025 PROB30 2102/2108 5SM -SN BR BKN006 OVC015
FM210800 VRB03KT P6SM FEW008 OVC020 TEMPO 2108/2110 4SM -SN
BKN008 OVC020
FM211000 VRB03KT 6SM -SN SCT008 OVC025 TEMPO 2110/2114 2SM -SN
BKN008 OVC020 PROB30 2110/2114 11/2SM -SN
RMK FCST BASED ON AUTO OBS. NXT FCST BY 210800Z=
Your time UTC time
Weather data provided by Environment Canada and NAV CANADA